createdAt,value
2023-01-31T00:05:55.025Z,100837.53
2023-01-31T00:12:57.199Z,100839.34
2023-01-31T00:19:59.031Z,100851.34
2023-01-31T00:27:00.818Z,100857.66
2023-01-31T00:34:02.909Z,100862.66
2023-01-31T00:41:04.895Z,100863.47
2023-01-31T00:48:10.216Z,100882.31
2023-01-31T00:55:12.165Z,100887.69
2023-01-31T01:02:14.173Z,100904.31
2023-01-31T01:09:17.542Z,100919.78
2023-01-31T01:16:22.190Z,100913.25
2023-01-31T01:23:23.958Z,100933.13
2023-01-31T01:30:25.838Z,100936.63
2023-01-31T01:37:27.664Z,100930.91
2023-01-31T01:44:46.043Z,100947.59
2023-01-31T01:51:48.751Z,100953.47
2023-01-31T01:59:02.830Z,100969.34
2023-01-31T02:06:05.135Z,100993.59
2023-01-31T02:13:06.933Z,100996.31
2023-01-31T02:20:24.171Z,101005.38
2023-01-31T02:27:31.838Z,101025.31
2023-01-31T02:34:38.398Z,101044.19
2023-01-31T02:41:44.285Z,101054.66
2023-01-31T02:49:34.395Z,101054.03
2023-01-31T02:56:39.732Z,101036.81
2023-01-31T03:03:41.656Z,101039.47
2023-01-31T03:10:57.894Z,101033.44
2023-01-31T03:18:05.829Z,101037.91
2023-01-31T03:25:09.015Z,101037.28
2023-01-31T03:32:16.273Z,101046.72
2023-01-31T03:39:37.919Z,101066.44
2023-01-31T03:46:44.606Z,101070.09
2023-01-31T03:53:49.525Z,101069.50
2023-01-31T04:00:51.957Z,101067.06
2023-01-31T04:07:54.640Z,101074.75
2023-01-31T04:14:59.013Z,101091.78
2023-01-31T04:22:00.848Z,101094.59
2023-01-31T04:29:03.117Z,101093.16
2023-01-31T04:36:05.202Z,101102.78
2023-01-31T04:43:06.881Z,101109.72
2023-01-31T04:50:09.117Z,101130.56
2023-01-31T04:57:10.904Z,101133.91
2023-01-31T05:04:13.777Z,101139.34
2023-01-31T05:11:15.459Z,101134.50
2023-01-31T05:18:17.234Z,101136.34
2023-01-31T05:25:19.140Z,101139.25
2023-01-31T05:32:21.040Z,101141.41
2023-01-31T05:39:22.686Z,101152.16
2023-01-31T05:46:24.401Z,101161.22
2023-01-31T05:53:26.202Z,101157.78
2023-01-31T06:00:27.908Z,101151.41
2023-01-31T06:07:29.546Z,101158.97
2023-01-31T06:14:32.283Z,101161.97
2023-01-31T06:21:34.035Z,101167.75
2023-01-31T06:28:36.663Z,101170.63
2023-01-31T06:35:38.545Z,101193.28
2023-01-31T06:42:40.290Z,101194.63
2023-01-31T06:49:41.950Z,101195.22
2023-01-31T06:56:43.948Z,101189.34
2023-01-31T07:03:45.581Z,101189.50
2023-01-31T07:10:48.277Z,101188.53
2023-01-31T07:17:49.941Z,101182.44
2023-01-31T07:24:52.080Z,101168.16
2023-01-31T07:31:54.719Z,101180.75
2023-01-31T07:38:57.212Z,101189.84
2023-01-31T07:45:58.939Z,101191.19
2023-01-31T07:53:00.623Z,101181.94
2023-01-31T08:00:02.749Z,101182.16
2023-01-31T08:07:13.168Z,101170.34
2023-01-31T08:14:14.865Z,101166.47
2023-01-31T08:21:16.644Z,101162.81
2023-01-31T08:28:18.634Z,101161.88
2023-01-31T08:35:20.548Z,101154.41
2023-01-31T08:42:22.415Z,101153.28
2023-01-31T08:49:24.034Z,101161.06
2023-01-31T08:56:26.355Z,101158.94
2023-01-31T09:03:28.060Z,101150.41
2023-01-31T09:10:30.156Z,101142.06
2023-01-31T09:17:32.247Z,101134.00
2023-01-31T09:24:34.012Z,101118.19
2023-01-31T09:31:35.771Z,101119.06
2023-01-31T09:38:37.674Z,101107.88
2023-01-31T09:45:40.003Z,101104.94
2023-01-31T09:52:41.656Z,101093.72
2023-01-31T09:59:49.334Z,101084.28
2023-01-31T10:07:01.507Z,101073.88
2023-01-31T10:14:15.271Z,101067.31
2023-01-31T10:21:18.456Z,101052.50
2023-01-31T10:28:26.241Z,101035.28
2023-01-31T10:35:37.157Z,101026.53
2023-01-31T10:42:39.627Z,100998.38
2023-01-31T10:49:44.492Z,101000.34
2023-01-31T10:56:47.564Z,100983.31
2023-01-31T11:03:53.713Z,100974.50
2023-01-31T11:10:56.254Z,100954.31
2023-01-31T11:17:59.474Z,100938.41
2023-01-31T11:25:01.981Z,100931.19
2023-01-31T11:32:05.503Z,100907.25
2023-01-31T11:39:34.594Z,100897.50
2023-01-31T11:46:54.390Z,100887.31
2023-01-31T11:53:56.180Z,100875.97
2023-01-31T12:01:02.460Z,100855.69
2023-01-31T12:08:04.341Z,100812.47
2023-01-31T12:15:14.522Z,100784.31
2023-01-31T12:22:20.645Z,100780.41
2023-01-31T12:29:41.201Z,100762.72
2023-01-31T12:37:10.261Z,100758.22
2023-01-31T12:44:48.202Z,100735.31
2023-01-31T12:52:17.618Z,100736.91
2023-01-31T12:59:47.593Z,100723.78
2023-01-31T13:06:54.457Z,100706.97
2023-01-31T13:13:57.739Z,100701.25
2023-01-31T13:21:01.974Z,100694.59
2023-01-31T13:28:23.695Z,100682.09
2023-01-31T13:35:33.382Z,100683.03
2023-01-31T13:42:35.337Z,100674.59
2023-01-31T13:49:39.084Z,100672.53
2023-01-31T13:56:41.006Z,100660.69
2023-01-31T14:04:14.665Z,100669.44
2023-01-31T14:11:21.982Z,100668.69
2023-01-31T14:18:43.388Z,100656.28
2023-01-31T14:25:45.122Z,100656.06
2023-01-31T14:33:07.148Z,100639.84
2023-01-31T14:40:11.768Z,100635.59
2023-01-31T14:47:26.152Z,100628.06
2023-01-31T14:54:37.588Z,100626.69
2023-01-31T15:01:39.605Z,100624.66
2023-01-31T15:08:43.553Z,100610.44
2023-01-31T15:15:45.142Z,100595.84
2023-01-31T15:22:46.838Z,100604.47
2023-01-31T15:30:05.218Z,100598.06
2023-01-31T15:37:27.315Z,100582.28
2023-01-31T15:44:29.265Z,100586.19
2023-01-31T15:51:30.885Z,100577.94
2023-01-31T15:58:32.596Z,100568.97
2023-01-31T16:05:36.206Z,100566.47
2023-01-31T16:12:40.528Z,100561.19
2023-01-31T16:19:42.153Z,100574.28
2023-01-31T16:27:09.231Z,100566.69
2023-01-31T16:34:25.448Z,100579.50
2023-01-31T16:41:39.510Z,100586.94
2023-01-31T16:48:41.935Z,100574.47
2023-01-31T16:55:43.665Z,100551.50
2023-01-31T17:02:45.335Z,100539.94
2023-01-31T17:09:47.104Z,100534.63
2023-01-31T17:16:52.591Z,100541.84
2023-01-31T17:23:54.284Z,100529.25
2023-01-31T17:30:55.991Z,100527.28
2023-01-31T17:37:57.862Z,100509.22
2023-01-31T17:44:59.519Z,100512.94
2023-01-31T17:52:02.117Z,100505.97
2023-01-31T17:59:12.258Z,100479.34
2023-01-31T18:06:16.883Z,100445.56
2023-01-31T18:13:18.980Z,100470.66
2023-01-31T18:20:20.861Z,100463.00
2023-01-31T18:27:22.659Z,100468.03
2023-01-31T18:34:24.825Z,100449.50
2023-01-31T18:41:26.724Z,100428.72
2023-01-31T18:48:29.223Z,100432.44
2023-01-31T18:55:30.921Z,100413.25
2023-01-31T19:02:32.681Z,100423.34
2023-01-31T19:09:35.331Z,100426.66
2023-01-31T19:16:37.737Z,100430.72
2023-01-31T19:23:39.551Z,100479.56
2023-01-31T19:30:41.385Z,100519.63
2023-01-31T19:37:43.219Z,100498.97
2023-01-31T19:44:44.906Z,100497.44
2023-01-31T19:51:46.607Z,100475.00
2023-01-31T19:58:48.174Z,100488.19
2023-01-31T20:05:50.078Z,100515.34
2023-01-31T20:12:51.708Z,100525.53
2023-01-31T20:19:53.363Z,100518.66
2023-01-31T20:26:55.342Z,100520.25
2023-01-31T20:33:57.229Z,100534.44
2023-01-31T20:40:59.178Z,100548.91
2023-01-31T20:48:00.939Z,100540.88
2023-01-31T20:55:02.618Z,100550.19
2023-01-31T21:02:04.419Z,100543.47
2023-01-31T21:09:06.139Z,100569.53
2023-01-31T21:16:08.314Z,100580.56
2023-01-31T21:23:10.142Z,100590.97
2023-01-31T21:30:11.985Z,100591.69
2023-01-31T21:37:13.696Z,100595.03
2023-01-31T21:44:15.319Z,100630.91
2023-01-31T21:51:17.935Z,100618.81
2023-01-31T21:58:27.336Z,100603.94
2023-01-31T22:05:29.173Z,100608.47
2023-01-31T22:12:30.890Z,100608.59
2023-01-31T22:19:32.660Z,100596.84
2023-01-31T22:26:36.299Z,100602.06
2023-01-31T22:33:39.235Z,100597.44
2023-01-31T22:40:45.032Z,100602.19
2023-01-31T22:47:46.748Z,100600.56
2023-01-31T22:54:48.363Z,100597.91
2023-01-31T23:01:50.053Z,100592.69
2023-01-31T23:08:51.945Z,100605.53
2023-01-31T23:15:53.896Z,100602.22
2023-01-31T23:22:56.517Z,100606.75
2023-01-31T23:29:58.243Z,100592.06
2023-01-31T23:36:59.909Z,100584.63
2023-01-31T23:44:01.544Z,100605.25
2023-01-31T23:51:04.259Z,100602.00
2023-01-31T23:58:06.027Z,100589.41
